< < Back
Terminal Aerodrome Forecast


Current Version              Previous Versions:   1  2  3  4  5  6  7  8  9  

Terminal Aerodrome Forecast

654
FTUS42 KFFC 172300
TAFFTY
TAF
KFTY 172336Z 1800/1824 32004KT P6SM SCT250
     FM180200 34002KT P6SM SCT250
     FM181500 04004KT P6SM FEW040
     FM182000 31005KT P6SM SCT050=

Latest METAR

015
SAUS70 KWBC 180400 RRB
MTRFTY
METAR KFTY 180353Z 00000KT 10SM CLR 18/15 A2996 RMK AO2 SLP138
T01830150


USA.gov is the U.S. government's official web portal to all federal, state and local government web resources and services.